East Rockaway, New York
Current Conditions -  °F | °C
As of 1:51 AM on Monday 24 Nov 2014 (Local Time) from KJFK Reporting Station
Light Rain Light Rain  
Wind Chill: 58°   Ceiling: 2800
Heat Index: 58°   Visibility: 10mi
Dew Point: 54°   Wind: 14mph
Humidity: 87%   Direction: 120°ESE
Pressure: 29.9"   Gusts: NA
Location:  40.65°N, 73.66°W
Report Text: KJFK 240651Z 12012KT 10SM -RA OVC028 14/12 A2990 RMK AO2 SLP126 P0001 T01440122 $
Loading
Personal Weather Stations






























Interactive Weather Map New forecast layout! Learn more

10-Day Weather Forecast

Advertisements
Track Severe Weather on mobile